createdAt,value
2019-05-11T00:02:15.352Z,98.40
2019-05-11T00:04:45.824Z,98.60
2019-05-11T00:07:16.226Z,98.50
2019-05-11T00:09:57.675Z,98.70
2019-05-11T00:12:18.670Z,98.50
2019-05-11T00:14:49.031Z,98.30
2019-05-11T00:17:19.518Z,98.70
2019-05-11T00:19:49.891Z,98.70
2019-05-11T00:22:20.268Z,98.60
2019-05-11T00:24:50.887Z,98.40
2019-05-11T00:27:21.320Z,98.30
2019-05-11T00:29:51.800Z,98.50
2019-05-11T00:32:22.909Z,98.70
2019-05-11T00:34:53.706Z,99.00
2019-05-11T00:37:25.237Z,98.70
2019-05-11T00:39:55.601Z,98.60
2019-05-11T00:42:25.958Z,99.10
2019-05-11T00:44:56.306Z,98.60
2019-05-11T00:47:26.746Z,98.80
2019-05-11T00:49:57.285Z,98.70
2019-05-11T00:52:27.643Z,98.50
2019-05-11T00:54:57.993Z,98.30
2019-05-11T00:57:28.367Z,98.30
2019-05-11T00:59:58.898Z,98.50
2019-05-11T01:02:29.382Z,98.20
2019-05-11T01:04:59.747Z,98.30
2019-05-11T01:07:30.125Z,98.40
2019-05-11T01:10:00.489Z,98.30
2019-05-11T01:12:30.861Z,98.30
2019-05-11T01:15:01.208Z,98.40
2019-05-11T01:17:32.791Z,98.40
2019-05-11T01:20:03.145Z,98.50
2019-05-11T01:22:33.517Z,98.50
2019-05-11T01:25:04.075Z,98.40
2019-05-11T01:27:35.442Z,98.40
2019-05-11T01:30:06.511Z,98.30
2019-05-11T01:32:36.887Z,98.20
2019-05-11T01:35:07.243Z,98.30
2019-05-11T01:37:37.614Z,98.30
2019-05-11T01:40:08.269Z,98.30
2019-05-11T01:42:38.696Z,98.40
2019-05-11T01:45:09.051Z,98.50
2019-05-11T01:47:39.423Z,98.70
2019-05-11T01:50:10.117Z,99.00
2019-05-11T01:52:40.494Z,98.60
2019-05-11T01:55:10.841Z,98.70
2019-05-11T01:57:41.223Z,98.90
2019-05-11T02:00:11.811Z,98.70
2019-05-11T02:02:42.137Z,98.80
2019-05-11T02:05:33.413Z,98.70
2019-05-11T02:08:03.872Z,98.70
2019-05-11T02:10:34.195Z,99.10
2019-05-11T02:13:04.535Z,99.10
2019-05-11T02:15:34.855Z,99.10
2019-05-11T02:18:05.238Z,98.90
2019-05-11T02:20:35.631Z,99.00
2019-05-11T02:23:05.979Z,99.10
2019-05-11T02:25:36.280Z,99.20
2019-05-11T02:28:06.602Z,99.30
2019-05-11T02:30:36.916Z,99.40
2019-05-11T02:33:07.234Z,99.20
2019-05-11T02:35:37.555Z,99.40
2019-05-11T02:38:07.914Z,99.60
2019-05-11T02:40:38.287Z,99.60
2019-05-11T02:43:08.695Z,99.60
2019-05-11T02:45:42.942Z,99.90
2019-05-11T02:48:13.287Z,99.90
2019-05-11T02:50:44.605Z,99.90
2019-05-11T02:53:15.632Z,99.90
2019-05-11T02:55:47.453Z,99.90
2019-05-11T02:58:17.783Z,99.90
2019-05-11T03:00:48.704Z,99.90
2019-05-11T03:03:19.022Z,99.90
2019-05-11T03:05:49.393Z,99.90
2019-05-11T03:08:19.848Z,99.90
2019-05-11T03:10:50.156Z,99.90
2019-05-11T03:13:20.515Z,99.90
2019-05-11T03:15:50.815Z,99.90
2019-05-11T03:18:21.171Z,99.90
2019-05-11T03:20:51.497Z,99.90
2019-05-11T03:23:21.817Z,99.90
2019-05-11T03:25:52.131Z,99.90
2019-05-11T03:28:22.467Z,99.90
2019-05-11T03:30:52.879Z,99.90
2019-05-11T03:33:23.241Z,99.90
2019-05-11T03:35:53.570Z,99.90
2019-05-11T03:38:23.904Z,99.90
2019-05-11T03:40:54.286Z,99.90
2019-05-11T03:43:24.643Z,99.90
2019-05-11T03:45:54.928Z,99.90
2019-05-11T03:48:25.259Z,99.90
2019-05-11T03:50:56.115Z,99.90
2019-05-11T03:53:26.457Z,99.90
2019-05-11T03:55:56.829Z,99.90
2019-05-11T03:58:27.211Z,99.90
2019-05-11T04:00:57.508Z,99.90
2019-05-11T04:03:27.840Z,99.90
2019-05-11T04:05:58.200Z,99.90
2019-05-11T04:08:28.582Z,99.90
2019-05-11T04:10:58.940Z,99.90
2019-05-11T04:13:29.315Z,99.90
2019-05-11T04:15:59.635Z,99.90
2019-05-11T04:18:29.949Z,99.90
2019-05-11T04:21:00.306Z,99.90
2019-05-11T04:23:30.634Z,99.90
2019-05-11T04:26:01.418Z,99.90
2019-05-11T04:28:31.707Z,99.90
2019-05-11T04:31:02.050Z,99.90
2019-05-11T04:33:33.174Z,99.90
2019-05-11T04:36:03.889Z,99.90
2019-05-11T04:38:34.215Z,99.90
2019-05-11T04:41:04.542Z,99.90
2019-05-11T04:43:34.860Z,99.90
2019-05-11T04:46:05.188Z,99.90
2019-05-11T04:48:35.499Z,99.90
2019-05-11T04:51:05.838Z,99.90
2019-05-11T04:53:36.140Z,99.90
2019-05-11T04:56:06.484Z,99.90
2019-05-11T04:58:36.940Z,99.90
2019-05-11T05:01:07.361Z,99.90
2019-05-11T05:03:41.151Z,99.90
2019-05-11T05:06:21.747Z,99.90
2019-05-11T05:08:41.612Z,99.90
2019-05-11T05:11:11.935Z,99.90
2019-05-11T05:13:42.263Z,99.90
2019-05-11T05:16:12.607Z,99.90
2019-05-11T05:18:42.920Z,99.90
2019-05-11T05:21:13.253Z,99.90
2019-05-11T05:23:43.567Z,99.90
2019-05-11T05:26:13.917Z,99.90
2019-05-11T05:28:45.790Z,99.90
2019-05-11T05:31:16.173Z,99.90
2019-05-11T05:33:46.487Z,99.90
2019-05-11T05:36:16.863Z,99.90
2019-05-11T05:38:47.229Z,99.90
2019-05-11T05:41:17.560Z,99.90
2019-05-11T05:43:47.886Z,99.90
2019-05-11T05:46:18.226Z,99.90
2019-05-11T05:48:48.539Z,99.90
2019-05-11T05:51:18.887Z,99.90
2019-05-11T05:53:49.180Z,99.90
2019-05-11T05:56:19.512Z,99.90
2019-05-11T05:58:49.814Z,99.90
2019-05-11T06:01:20.164Z,99.90
2019-05-11T06:03:50.482Z,99.90
2019-05-11T06:06:21.935Z,99.90
2019-05-11T06:08:52.232Z,99.90
2019-05-11T06:11:22.567Z,99.90
2019-05-11T06:13:53.970Z,99.90
2019-05-11T06:16:24.279Z,99.90
2019-05-11T06:18:54.581Z,99.90
2019-05-11T06:21:24.987Z,99.90
2019-05-11T06:23:55.283Z,99.90
2019-05-11T06:26:25.690Z,99.90
2019-05-11T06:28:55.989Z,99.90
2019-05-11T06:31:26.334Z,99.90
2019-05-11T06:33:56.638Z,99.90
2019-05-11T06:36:26.978Z,99.90
2019-05-11T06:38:57.369Z,99.90
2019-05-11T06:41:27.782Z,99.90
2019-05-11T06:44:01.918Z,99.90
2019-05-11T06:46:34.690Z,99.90
2019-05-11T06:49:03.051Z,99.90
2019-05-11T06:51:33.448Z,99.90
2019-05-11T06:54:03.753Z,99.90
2019-05-11T06:56:34.089Z,99.90
2019-05-11T06:59:04.400Z,99.90
2019-05-11T07:01:34.853Z,99.90
2019-05-11T07:04:05.179Z,99.90
2019-05-11T07:06:35.511Z,99.90
2019-05-11T07:09:07.468Z,99.00
2019-05-11T07:11:37.773Z,98.10
2019-05-11T07:14:19.832Z,97.40
2019-05-11T07:16:40.063Z,96.90
2019-05-11T07:19:10.393Z,96.50
2019-05-11T07:21:40.786Z,95.90
2019-05-11T07:24:11.016Z,95.50
2019-05-11T07:26:41.390Z,95.00
2019-05-11T07:29:11.742Z,94.90
2019-05-11T07:31:42.074Z,94.10
2019-05-11T07:34:12.541Z,94.00
2019-05-11T07:36:42.870Z,93.50
2019-05-11T07:39:13.241Z,92.90
2019-05-11T07:41:43.571Z,93.30
2019-05-11T07:44:13.894Z,91.70
2019-05-11T07:46:44.252Z,91.20
2019-05-11T07:49:17.947Z,90.10
2019-05-11T07:51:49.611Z,89.40
2019-05-11T07:54:19.940Z,86.40
2019-05-11T07:56:50.321Z,83.80
2019-05-11T07:59:20.707Z,81.30
2019-05-11T08:01:51.037Z,79.60
2019-05-11T08:04:21.377Z,78.80
2019-05-11T08:06:51.756Z,77.40
2019-05-11T08:09:22.146Z,76.50
2019-05-11T08:11:52.493Z,74.60
2019-05-11T08:14:22.807Z,72.50
2019-05-11T08:16:53.205Z,69.60
2019-05-11T08:19:23.511Z,68.20
2019-05-11T08:21:53.895Z,69.50
2019-05-11T08:24:24.271Z,69.20
2019-05-11T08:26:54.572Z,65.40
2019-05-11T08:29:24.873Z,65.10
2019-05-11T08:31:55.221Z,64.20
2019-05-11T08:34:25.582Z,64.00
2019-05-11T08:36:58.215Z,57.90
2019-05-11T08:39:28.832Z,61.30
2019-05-11T08:42:03.064Z,59.50
2019-05-11T08:44:32.046Z,58.80
2019-05-11T08:47:02.421Z,58.70
2019-05-11T08:49:32.779Z,57.60
2019-05-11T08:52:03.814Z,57.70
2019-05-11T08:54:34.986Z,58.40
2019-05-11T08:57:05.387Z,59.10
2019-05-11T08:59:37.940Z,57.70
2019-05-11T09:02:08.552Z,57.40
2019-05-11T09:04:41.800Z,57.50
2019-05-11T09:07:10.984Z,55.80
2019-05-11T09:09:41.405Z,55.70
2019-05-11T09:12:11.720Z,52.80
2019-05-11T09:14:42.063Z,53.70
2019-05-11T09:17:12.374Z,53.10
2019-05-11T09:19:42.755Z,53.00
2019-05-11T09:22:13.188Z,52.50
2019-05-11T09:24:43.603Z,52.70
2019-05-11T09:27:13.905Z,53.10
2019-05-11T09:29:45.318Z,52.40
2019-05-11T09:32:17.725Z,52.20
2019-05-11T09:34:48.468Z,52.10
2019-05-11T09:37:19.846Z,50.90
2019-05-11T09:39:50.203Z,51.90
2019-05-11T09:42:20.569Z,52.80
2019-05-11T09:44:50.966Z,51.70
2019-05-11T09:47:21.269Z,50.90
2019-05-11T09:49:51.715Z,50.70
2019-05-11T09:52:22.104Z,50.60
2019-05-11T09:54:52.473Z,50.80
2019-05-11T09:57:22.785Z,50.30
2019-05-11T09:59:53.134Z,49.90
2019-05-11T10:02:23.496Z,48.80
2019-05-11T10:04:53.813Z,48.30
2019-05-11T10:07:24.128Z,48.20
2019-05-11T10:09:54.500Z,47.70
2019-05-11T10:12:24.917Z,47.80
2019-05-11T10:14:55.352Z,48.20
2019-05-11T10:17:25.710Z,47.60
2019-05-11T10:19:58.220Z,48.20
2019-05-11T10:22:28.064Z,48.60
2019-05-11T10:24:58.421Z,48.30
2019-05-11T10:27:28.698Z,48.20
2019-05-11T10:29:59.089Z,47.90
2019-05-11T10:32:29.424Z,48.10
2019-05-11T10:34:59.753Z,46.60
2019-05-11T10:37:30.069Z,46.00
2019-05-11T10:40:00.439Z,45.50
2019-05-11T10:42:30.803Z,45.80
2019-05-11T10:45:01.182Z,46.20
2019-05-11T10:47:31.595Z,45.60
2019-05-11T10:50:01.944Z,45.20
2019-05-11T10:52:32.254Z,44.20
2019-05-11T10:55:03.342Z,44.20
2019-05-11T10:57:33.675Z,45.10
2019-05-11T11:00:04.490Z,43.70
2019-05-11T11:02:35.058Z,43.50
2019-05-11T11:05:07.898Z,43.70
2019-05-11T11:07:38.565Z,43.00
2019-05-11T11:10:09.327Z,42.70
2019-05-11T11:12:39.661Z,43.40
2019-05-11T11:15:10.146Z,43.00
2019-05-11T11:17:40.457Z,42.90
2019-05-11T11:20:11.881Z,42.70
2019-05-11T11:22:44.262Z,42.30
2019-05-11T11:25:14.287Z,41.70
2019-05-11T11:27:44.579Z,42.40
2019-05-11T11:30:15.229Z,43.20
2019-05-11T11:32:48.182Z,43.50
2019-05-11T11:35:18.961Z,43.60
2019-05-11T11:37:50.091Z,44.00
2019-05-11T11:40:20.581Z,43.80
2019-05-11T11:42:50.946Z,44.50
2019-05-11T11:45:21.310Z,43.10
2019-05-11T11:47:51.616Z,43.60
2019-05-11T11:50:22.002Z,43.30
2019-05-11T11:52:52.311Z,43.20
2019-05-11T11:55:22.648Z,41.30
2019-05-11T11:57:53.007Z,42.20
2019-05-11T12:00:23.532Z,41.90
2019-05-11T12:02:53.866Z,42.50
2019-05-11T12:05:24.207Z,42.90
2019-05-11T12:07:54.519Z,43.20
2019-05-11T12:10:24.859Z,43.20
2019-05-11T12:12:55.163Z,43.60
2019-05-11T12:15:25.570Z,42.30
2019-05-11T12:17:55.952Z,42.10
2019-05-11T12:20:29.500Z,42.00
2019-05-11T12:22:59.795Z,40.30
2019-05-11T12:25:30.146Z,38.60
2019-05-11T12:28:00.494Z,38.10
2019-05-11T12:30:30.826Z,37.80
2019-05-11T12:33:01.115Z,37.80
2019-05-11T12:35:31.469Z,38.10
2019-05-11T12:38:01.875Z,38.80
2019-05-11T12:40:32.227Z,37.90
2019-05-11T12:43:02.542Z,38.00
2019-05-11T12:45:32.940Z,38.60
2019-05-11T12:48:03.312Z,39.00
2019-05-11T12:50:34.521Z,40.60
2019-05-11T12:53:04.843Z,41.80
2019-05-11T12:55:35.222Z,49.60
2019-05-11T12:58:08.360Z,67.50
2019-05-11T13:00:39.213Z,85.20
2019-05-11T13:03:10.760Z,94.40
2019-05-11T13:05:41.131Z,99.10
2019-05-11T13:08:11.588Z,99.90
2019-05-11T13:10:41.983Z,99.90
2019-05-11T13:13:12.317Z,99.90
2019-05-11T13:15:42.680Z,99.90
2019-05-11T13:18:13.001Z,99.90
2019-05-11T13:20:43.440Z,97.50
2019-05-11T13:23:13.777Z,94.90
2019-05-11T13:25:44.127Z,89.10
2019-05-11T13:28:14.465Z,73.20
2019-05-11T13:30:44.822Z,73.90
2019-05-11T13:33:15.158Z,67.20
2019-05-11T13:35:45.519Z,70.50
2019-05-11T13:38:17.694Z,70.80
2019-05-11T13:40:48.953Z,69.50
2019-05-11T13:43:19.323Z,73.40
2019-05-11T13:45:49.688Z,74.80
2019-05-11T13:48:20.031Z,78.90
2019-05-11T13:50:50.404Z,75.40
2019-05-11T13:53:20.725Z,76.80
2019-05-11T13:55:51.097Z,76.40
2019-05-11T13:58:21.433Z,78.30
2019-05-11T14:00:51.818Z,76.00
2019-05-11T14:03:22.137Z,84.40
2019-05-11T14:05:52.458Z,77.60
2019-05-11T14:08:22.873Z,72.10
2019-05-11T14:10:53.416Z,66.00
2019-05-11T14:13:23.767Z,57.80
2019-05-11T14:15:54.145Z,55.40
2019-05-11T14:18:24.483Z,51.60
2019-05-11T14:20:54.875Z,52.00
2019-05-11T14:23:28.422Z,57.80
2019-05-11T14:25:57.637Z,57.80
2019-05-11T14:28:28.602Z,55.80
2019-05-11T14:30:59.081Z,54.00
2019-05-11T14:33:29.516Z,53.40
2019-05-11T14:35:59.824Z,55.10
2019-05-11T14:38:30.174Z,55.40
2019-05-11T14:41:00.503Z,58.50
2019-05-11T14:43:30.889Z,58.40
2019-05-11T14:46:01.223Z,60.60
2019-05-11T14:48:31.799Z,63.50
2019-05-11T14:51:02.209Z,64.20
2019-05-11T14:53:32.595Z,68.30
2019-05-11T14:56:02.956Z,69.40
2019-05-11T14:58:33.327Z,71.50
2019-05-11T15:01:03.684Z,71.30
2019-05-11T15:03:33.993Z,70.90
2019-05-11T15:06:04.343Z,70.70
2019-05-11T15:08:35.332Z,69.40
2019-05-11T15:11:05.669Z,66.60
2019-05-11T15:13:38.007Z,64.50
2019-05-11T15:16:08.267Z,62.90
2019-05-11T15:18:42.299Z,63.10
2019-05-11T15:21:12.727Z,65.30
2019-05-11T15:23:43.084Z,66.50
2019-05-11T15:26:13.435Z,73.40
2019-05-11T15:28:43.791Z,76.40
2019-05-11T15:31:14.176Z,79.00
2019-05-11T15:33:44.531Z,81.20
2019-05-11T15:36:15.851Z,87.20
2019-05-11T15:38:48.133Z,91.20
2019-05-11T15:41:19.894Z,93.10
2019-05-11T15:43:50.298Z,95.10
2019-05-11T15:46:20.617Z,96.80
2019-05-11T15:48:58.859Z,98.30
2019-05-11T15:51:22.945Z,98.50
2019-05-11T15:53:53.294Z,98.70
2019-05-11T15:56:23.639Z,99.00
2019-05-11T15:58:53.980Z,98.90
2019-05-11T16:01:24.309Z,99.90
2019-05-11T16:03:54.798Z,99.90
2019-05-11T16:06:25.322Z,99.90
2019-05-11T16:08:58.442Z,99.90
2019-05-11T16:11:28.482Z,99.90
2019-05-11T16:13:59.255Z,99.90
2019-05-11T16:16:29.592Z,99.90
2019-05-11T16:19:10.581Z,99.90
2019-05-11T16:21:31.983Z,99.90
2019-05-11T16:24:02.392Z,99.90
2019-05-11T16:26:32.719Z,99.90
2019-05-11T16:29:03.140Z,99.90
2019-05-11T16:31:33.600Z,99.90
2019-05-11T16:34:03.997Z,99.90
2019-05-11T16:36:34.761Z,99.90
2019-05-11T16:39:10.049Z,99.90
2019-05-11T16:41:39.826Z,99.90
2019-05-11T16:44:10.195Z,99.90
2019-05-11T16:46:50.481Z,99.90
2019-05-11T16:49:26.130Z,99.90
2019-05-11T16:51:49.856Z,99.90
2019-05-11T16:54:21.092Z,99.90
2019-05-11T16:56:51.439Z,99.90
2019-05-11T16:59:21.771Z,99.90
2019-05-11T17:01:52.119Z,99.90
2019-05-11T17:04:22.475Z,99.90
2019-05-11T17:06:52.881Z,99.90
2019-05-11T17:09:24.679Z,99.90
2019-05-11T17:11:54.996Z,99.90
2019-05-11T17:14:25.395Z,99.90
2019-05-11T17:16:58.431Z,99.90
2019-05-11T17:19:42.132Z,99.90
2019-05-11T17:22:00.070Z,99.90
2019-05-11T17:24:30.447Z,99.90
2019-05-11T17:27:00.779Z,99.90
2019-05-11T17:29:31.332Z,99.90
2019-05-11T17:32:01.693Z,99.90
2019-05-11T17:34:32.081Z,99.90
2019-05-11T17:37:02.412Z,99.90
2019-05-11T17:39:33.731Z,99.90
2019-05-11T17:42:04.159Z,99.90
2019-05-11T17:44:34.905Z,99.90
2019-05-11T17:47:05.246Z,99.90
2019-05-11T17:49:37.799Z,99.90
2019-05-11T17:52:08.157Z,99.90
2019-05-11T17:54:38.629Z,99.90
2019-05-11T17:57:09.088Z,99.90
2019-05-11T17:59:39.461Z,99.90
2019-05-11T18:02:09.790Z,99.90
2019-05-11T18:04:40.447Z,99.90
2019-05-11T18:07:24.423Z,99.90
2019-05-11T18:09:42.882Z,99.90
2019-05-11T18:12:13.238Z,99.90
2019-05-11T18:14:43.817Z,99.90
2019-05-11T18:17:14.151Z,99.90
2019-05-11T18:19:44.580Z,99.90
2019-05-11T18:22:14.831Z,99.90
2019-05-11T18:24:49.011Z,99.90
2019-05-11T18:27:19.526Z,99.90
2019-05-11T18:29:49.924Z,99.90
2019-05-11T18:32:20.271Z,99.90
2019-05-11T18:34:51.597Z,99.90
2019-05-11T18:37:21.911Z,99.90
2019-05-11T18:39:52.849Z,99.90
2019-05-11T18:42:23.243Z,99.90
2019-05-11T18:44:57.385Z,99.90
2019-05-11T18:47:26.608Z,99.90
2019-05-11T18:49:58.778Z,99.90
2019-05-11T18:52:29.627Z,99.90
2019-05-11T18:55:00.022Z,99.90
2019-05-11T18:57:30.337Z,99.90
2019-05-11T19:00:03.495Z,99.90
2019-05-11T19:02:33.272Z,99.90
2019-05-11T19:05:03.625Z,99.90
2019-05-11T19:07:34.055Z,99.90
2019-05-11T19:10:10.772Z,99.90
2019-05-11T19:12:41.158Z,99.90
2019-05-11T19:15:11.560Z,99.90
2019-05-11T19:17:43.111Z,99.90
2019-05-11T19:20:13.547Z,99.90
2019-05-11T19:22:44.716Z,99.90
2019-05-11T19:25:15.103Z,99.90
2019-05-11T19:27:45.429Z,99.90
2019-05-11T19:30:18.240Z,99.90
2019-05-11T19:32:48.902Z,99.90
2019-05-11T19:35:21.132Z,99.90
2019-05-11T19:37:51.790Z,99.90
2019-05-11T19:40:22.390Z,99.90
2019-05-11T19:42:54.456Z,99.90
2019-05-11T19:45:25.436Z,99.90
2019-05-11T19:47:57.779Z,99.90
2019-05-11T19:50:28.080Z,99.90
2019-05-11T19:52:58.425Z,99.90
2019-05-11T19:55:28.836Z,99.90
2019-05-11T19:57:59.343Z,99.90
2019-05-11T20:00:29.919Z,99.90
2019-05-11T20:03:00.978Z,99.90
2019-05-11T20:05:31.612Z,99.90
2019-05-11T20:08:02.017Z,99.90
2019-05-11T20:10:32.380Z,99.90
2019-05-11T20:13:02.878Z,99.90
2019-05-11T20:15:33.309Z,99.90
2019-05-11T20:18:03.615Z,99.90
2019-05-11T20:20:34.057Z,99.90
2019-05-11T20:23:04.379Z,99.90
2019-05-11T20:25:34.763Z,99.90
2019-05-11T20:28:05.226Z,99.90
2019-05-11T20:30:35.591Z,99.90
2019-05-11T20:33:08.561Z,99.90
2019-05-11T20:35:38.432Z,99.90
2019-05-11T20:38:10.984Z,99.90
2019-05-11T20:40:41.357Z,99.90
2019-05-11T20:43:11.767Z,99.90
2019-05-11T20:45:42.187Z,99.90
2019-05-11T20:48:12.538Z,99.90
2019-05-11T20:50:42.897Z,99.90
2019-05-11T20:53:13.304Z,99.90
2019-05-11T20:55:43.663Z,99.90
2019-05-11T20:58:14.113Z,99.90
2019-05-11T21:00:44.460Z,99.90
2019-05-11T21:03:14.863Z,99.90
2019-05-11T21:05:45.231Z,99.90
2019-05-11T21:08:17.566Z,99.90
2019-05-11T21:10:49.092Z,99.90
2019-05-11T21:13:19.477Z,99.90
2019-05-11T21:15:50.739Z,99.90
2019-05-11T21:18:21.099Z,99.90
2019-05-11T21:20:51.427Z,99.90
2019-05-11T21:23:21.770Z,99.90
2019-05-11T21:25:52.619Z,99.90
2019-05-11T21:28:22.996Z,99.90
2019-05-11T21:30:53.346Z,99.90
2019-05-11T21:33:23.702Z,99.90
2019-05-11T21:35:54.287Z,99.90
2019-05-11T21:38:24.644Z,99.90
2019-05-11T21:40:54.983Z,99.90
2019-05-11T21:43:25.631Z,99.90
2019-05-11T21:45:58.244Z,99.90
2019-05-11T21:48:28.144Z,99.90
2019-05-11T21:50:59.938Z,99.90
2019-05-11T21:53:30.519Z,99.90
2019-05-11T21:56:02.462Z,99.90
2019-05-11T21:58:32.846Z,99.90
2019-05-11T22:01:03.187Z,99.90
2019-05-11T22:03:33.519Z,99.90
2019-05-11T22:06:04.515Z,99.90
2019-05-11T22:08:34.952Z,99.90
2019-05-11T22:11:05.338Z,99.90
2019-05-11T22:13:37.782Z,99.90
2019-05-11T22:16:08.663Z,99.90
2019-05-11T22:18:39.169Z,99.90
2019-05-11T22:21:09.535Z,99.90
2019-05-11T22:23:39.874Z,99.90
2019-05-11T22:26:14.594Z,99.90
2019-05-11T22:28:44.016Z,99.90
2019-05-11T22:31:14.333Z,99.90
2019-05-11T22:33:48.060Z,99.90
2019-05-11T22:36:20.209Z,99.90
2019-05-11T22:38:51.764Z,99.90
2019-05-11T22:41:22.227Z,99.90
2019-05-11T22:43:52.562Z,99.90
2019-05-11T22:46:22.925Z,99.90
2019-05-11T22:48:53.275Z,99.90
2019-05-11T22:51:23.628Z,99.90
2019-05-11T22:53:53.961Z,99.90
2019-05-11T22:56:24.283Z,99.90
2019-05-11T22:58:54.616Z,99.90
2019-05-11T23:01:24.973Z,99.90
2019-05-11T23:03:55.278Z,99.90
2019-05-11T23:06:25.631Z,99.90
2019-05-11T23:08:55.941Z,99.90
2019-05-11T23:11:28.347Z,99.90
2019-05-11T23:13:58.299Z,99.90
2019-05-11T23:16:28.785Z,99.90
2019-05-11T23:18:59.185Z,99.90
2019-05-11T23:21:30.301Z,99.90
2019-05-11T23:24:00.709Z,99.90
2019-05-11T23:26:31.023Z,99.90
2019-05-11T23:29:01.378Z,99.90
2019-05-11T23:31:38.255Z,99.90
2019-05-11T23:34:08.803Z,99.90
2019-05-11T23:36:39.125Z,99.90
2019-05-11T23:39:09.501Z,99.90
2019-05-11T23:41:39.819Z,99.90
2019-05-11T23:44:10.183Z,99.90
2019-05-11T23:46:40.660Z,99.90
2019-05-11T23:49:11.054Z,99.90
2019-05-11T23:51:41.415Z,99.90
2019-05-11T23:54:11.750Z,99.90
2019-05-11T23:56:43.125Z,99.90
2019-05-11T23:59:13.466Z,99.90
